UAE53P OMDB-LOWW
Flight info
| Callsign | UAE53P |
|---|---|
| Flight time | N/A |
| Altitude | 29000 |
| Route | ANVIX L223 TARDI N629 BOTAM Y855 LAKLU/N0494F300 Q204 NALKI G652 TOKRA DCT ALROK DCT BOSOB DCT ITRUX Y511 PMA Z712 PEGUR/N0491F320 Z712 WEJ L677 GESON Q777 RASDA DCT OTHON DCT VAXOS DCT BANRO UG80 IMR UN127 LMO DCT EVIVI L863 OKANA DCT DONIV DCT PARAK DCT BALUX DCT TORNO DCT NATEX NATEX2W |
| Aircraft | B77W/H-SDE1E2E3FGHIJ2J3J4J5M1RWXY/LB1D1 |
Departure
| Time | 2026-04-22 15:57 |
|---|---|
| Airport | Dubai International Airport (OMDB) |
Arrival
| Time | N/A |
|---|---|
| Airport | Vienna International Airport (LOWW) |
| Time | Latitude | Longitude | Altitude | Speed | Heading |
|---|---|---|---|---|---|
| 2026-04-22 15:06 | 25.24583 | 55.36618 | 23 ft | 0 kts | 312° |
| 2026-04-22 15:36 | 25.24574 | 55.36630 | 28 ft | 4 kts | 312° |
| 2026-04-22 15:37 | 25.24556 | 55.36652 | 32 ft | 4 kts | 312° |
| 2026-04-22 15:37 | 25.24540 | 55.36669 | 31 ft | 4 kts | 333° |
| 2026-04-22 15:37 | 25.24521 | 55.36675 | 31 ft | 4 kts | 11° |
| 2026-04-22 15:37 | 25.24498 | 55.36666 | 30 ft | 4 kts | 31° |
| 2026-04-22 15:38 | 25.24482 | 55.36655 | 29 ft | 0 kts | 33° |
| 2026-04-22 15:45 | 25.24484 | 55.36656 | 28 ft | 2 kts | 33° |
| 2026-04-22 15:45 | 25.24509 | 55.36674 | 26 ft | 6 kts | 33° |
| 2026-04-22 15:45 | 25.24543 | 55.36698 | 32 ft | 6 kts | 32° |
| 2026-04-22 15:45 | 25.24577 | 55.36721 | 29 ft | 6 kts | 31° |
| 2026-04-22 15:46 | 25.24611 | 55.36744 | 30 ft | 6 kts | 31° |
| 2026-04-22 15:46 | 25.24646 | 55.36767 | 29 ft | 6 kts | 31° |
| 2026-04-22 15:46 | 25.24680 | 55.36790 | 25 ft | 6 kts | 31° |
| 2026-04-22 15:46 | 25.24713 | 55.36812 | 26 ft | 6 kts | 31° |
| 2026-04-22 15:47 | 25.24739 | 55.36844 | 26 ft | 6 kts | 75° |
| 2026-04-22 15:47 | 25.24729 | 55.36887 | 27 ft | 6 kts | 116° |
| 2026-04-22 15:47 | 25.24692 | 55.36957 | 27 ft | 13 kts | 122° |
| 2026-04-22 15:47 | 25.24646 | 55.37039 | 27 ft | 12 kts | 122° |
| 2026-04-22 15:48 | 25.24603 | 55.37117 | 27 ft | 12 kts | 122° |
| 2026-04-22 15:48 | 25.24558 | 55.37196 | 26 ft | 12 kts | 122° |
| 2026-04-22 15:48 | 25.24513 | 55.37275 | 26 ft | 12 kts | 122° |
| 2026-04-22 15:48 | 25.24469 | 55.37353 | 26 ft | 12 kts | 121° |
| 2026-04-22 15:49 | 25.24425 | 55.37432 | 26 ft | 12 kts | 122° |
| 2026-04-22 15:49 | 25.24381 | 55.37511 | 26 ft | 12 kts | 122° |
| 2026-04-22 15:49 | 25.24337 | 55.37590 | 26 ft | 12 kts | 122° |
| 2026-04-22 15:49 | 25.24292 | 55.37668 | 26 ft | 11 kts | 122° |
| 2026-04-22 15:50 | 25.24264 | 55.37746 | 27 ft | 11 kts | 82° |
| 2026-04-22 15:50 | 25.24315 | 55.37805 | 27 ft | 9 kts | 35° |
| 2026-04-22 15:50 | 25.24346 | 55.37827 | 28 ft | 0 kts | 33° |
| 2026-04-22 15:53 | 25.24347 | 55.37829 | 28 ft | 1 kts | 34° |
| 2026-04-22 15:53 | 25.24367 | 55.37843 | 29 ft | 5 kts | 34° |
| 2026-04-22 15:53 | 25.24393 | 55.37863 | 31 ft | 5 kts | 34° |
| 2026-04-22 15:53 | 25.24419 | 55.37882 | 33 ft | 5 kts | 34° |
| 2026-04-22 15:54 | 25.24446 | 55.37902 | 34 ft | 5 kts | 34° |
| 2026-04-22 15:54 | 25.24484 | 55.37932 | 35 ft | 8 kts | 34° |
| 2026-04-22 15:54 | 25.24530 | 55.37967 | 31 ft | 9 kts | 34° |
| 2026-04-22 15:54 | 25.24591 | 55.38012 | 30 ft | 10 kts | 33° |
| 2026-04-22 15:55 | 25.24651 | 55.38054 | 30 ft | 10 kts | 31° |
| 2026-04-22 15:55 | 25.24712 | 55.38095 | 34 ft | 10 kts | 31° |
| 2026-04-22 15:55 | 25.24760 | 55.38103 | 35 ft | 7 kts | 324° |
| 2026-04-22 15:55 | 25.24779 | 55.38075 | 35 ft | 0 kts | 301° |
| 2026-04-22 15:56 | 25.24781 | 55.38071 | 34 ft | 5 kts | 301° |
| 2026-04-22 15:56 | 25.24866 | 55.37918 | 35 ft | 54 kts | 302° |
| 2026-04-22 15:57 | 25.25200 | 55.37316 | 36 ft | 128 kts | 301° |
| 2026-04-22 15:57 | 25.25775 | 55.36277 | 36 ft | 189 kts | 302° |
| 2026-04-22 15:57 | 25.26526 | 55.34927 | 324 ft | 209 kts | 302° |
| 2026-04-22 15:57 | 25.27295 | 55.33536 | 913 ft | 211 kts | 304° |
| 2026-04-22 15:58 | 25.28064 | 55.32158 | 1491 ft | 211 kts | 303° |
| 2026-04-22 15:58 | 25.28822 | 55.30773 | 2031 ft | 207 kts | 302° |
| 2026-04-22 15:58 | 25.29346 | 55.29331 | 2332 ft | 203 kts | 274° |
| 2026-04-22 15:58 | 25.29063 | 55.27785 | 2421 ft | 212 kts | 243° |
| 2026-04-22 15:59 | 25.28352 | 55.26400 | 2940 ft | 204 kts | 240° |
| 2026-04-22 15:59 | 25.27699 | 55.25026 | 3481 ft | 198 kts | 244° |
| 2026-04-22 15:59 | 25.27095 | 55.23643 | 3843 ft | 202 kts | 245° |
| 2026-04-22 15:59 | 25.26491 | 55.22236 | 3984 ft | 207 kts | 245° |
| 2026-04-22 16:00 | 25.25870 | 55.20784 | 4037 ft | 216 kts | 245° |
| 2026-04-22 16:00 | 25.25200 | 55.19213 | 4054 ft | 230 kts | 245° |
| 2026-04-22 16:00 | 25.24396 | 55.17687 | 4016 ft | 233 kts | 224° |
| 2026-04-22 16:00 | 25.22980 | 55.16802 | 4231 ft | 248 kts | 192° |
| 2026-04-22 16:01 | 25.21216 | 55.16736 | 4555 ft | 260 kts | 179° |
| 2026-04-22 16:01 | 25.19413 | 55.17074 | 5041 ft | 266 kts | 159° |
| 2026-04-22 16:01 | 25.17911 | 55.18321 | 5445 ft | 281 kts | 127° |
| 2026-04-22 16:01 | 25.16934 | 55.20228 | 5848 ft | 289 kts | 120° |
| 2026-04-22 16:02 | 25.16007 | 55.22220 | 6386 ft | 293 kts | 120° |
| 2026-04-22 16:02 | 25.15075 | 55.24196 | 7008 ft | 293 kts | 121° |
| 2026-04-22 16:02 | 25.14119 | 55.26199 | 7635 ft | 295 kts | 121° |
| 2026-04-22 16:02 | 25.13157 | 55.28214 | 8222 ft | 297 kts | 121° |
| 2026-04-22 16:03 | 25.12190 | 55.30235 | 8808 ft | 298 kts | 120° |
| 2026-04-22 16:03 | 25.11225 | 55.32240 | 9386 ft | 300 kts | 121° |
| 2026-04-22 16:03 | 25.10267 | 55.34307 | 9955 ft | 304 kts | 117° |
| 2026-04-22 16:03 | 25.09389 | 55.36447 | 10505 ft | 307 kts | 116° |
| 2026-04-22 16:04 | 25.08512 | 55.38619 | 11065 ft | 310 kts | 116° |
| 2026-04-22 16:04 | 25.07624 | 55.40795 | 11671 ft | 312 kts | 117° |
| 2026-04-22 16:04 | 25.06751 | 55.42974 | 12215 ft | 318 kts | 115° |
| 2026-04-22 16:04 | 25.05859 | 55.45293 | 12370 ft | 338 kts | 115° |
| 2026-04-22 16:05 | 25.05240 | 55.46918 | 12493 ft | 351 kts | 115° |
| 2026-04-22 16:05 | 25.03929 | 55.50346 | 12704 ft | 377 kts | 115° |
| 2026-04-22 16:05 | 25.02876 | 55.53081 | 12909 ft | 395 kts | 115° |
| 2026-04-22 16:05 | 25.01771 | 55.55905 | 13349 ft | 404 kts | 117° |
| 2026-04-22 16:06 | 25.00421 | 55.58651 | 13865 ft | 409 kts | 123° |
| 2026-04-22 16:06 | 24.98902 | 55.61321 | 14420 ft | 413 kts | 124° |
| 2026-04-22 16:06 | 24.97358 | 55.64013 | 15013 ft | 417 kts | 123° |
| 2026-04-22 16:06 | 24.95853 | 55.66730 | 15609 ft | 421 kts | 123° |
| 2026-04-22 16:07 | 24.94342 | 55.69516 | 16156 ft | 426 kts | 123° |
| 2026-04-22 16:07 | 24.92714 | 55.72276 | 16718 ft | 429 kts | 127° |
| 2026-04-22 16:07 | 24.90950 | 55.74916 | 17286 ft | 433 kts | 129° |
| 2026-04-22 16:07 | 24.89111 | 55.77578 | 17875 ft | 437 kts | 129° |
| 2026-04-22 16:08 | 24.87274 | 55.80273 | 18413 ft | 441 kts | 128° |
| 2026-04-22 16:08 | 24.85442 | 55.83016 | 18914 ft | 445 kts | 128° |
| 2026-04-22 16:08 | 24.83609 | 55.85779 | 19442 ft | 448 kts | 128° |
| 2026-04-22 16:08 | 24.81769 | 55.88522 | 19926 ft | 452 kts | 129° |
| 2026-04-22 16:09 | 24.79882 | 55.91312 | 20399 ft | 456 kts | 129° |
| 2026-04-22 16:09 | 24.77958 | 55.94117 | 20871 ft | 458 kts | 131° |
| 2026-04-22 16:09 | 24.75763 | 55.96665 | 21302 ft | 459 kts | 140° |
| 2026-04-22 16:09 | 24.73348 | 55.98994 | 21769 ft | 462 kts | 142° |
| 2026-04-22 16:10 | 24.70917 | 56.01338 | 22242 ft | 466 kts | 141° |
| 2026-04-22 16:10 | 24.68516 | 56.03756 | 22716 ft | 470 kts | 140° |
| 2026-04-22 16:10 | 24.66929 | 56.05387 | 23009 ft | 472 kts | 140° |